createdAt,value
2023-04-09T00:01:55.716Z,101289.41
2023-04-09T00:06:57.342Z,101294.41
2023-04-09T00:11:59.140Z,101287.56
2023-04-09T00:17:01.461Z,101286.72
2023-04-09T00:22:03.064Z,101291.75
2023-04-09T00:27:04.698Z,101303.34
2023-04-09T00:32:06.762Z,101301.19
2023-04-09T00:37:08.569Z,101285.78
2023-04-09T00:42:10.240Z,101291.47
2023-04-09T00:47:12.052Z,101280.66
2023-04-09T00:52:13.792Z,101289.16
2023-04-09T00:57:15.985Z,101286.41
2023-04-09T01:02:17.708Z,101281.44
2023-04-09T01:07:54.965Z,101293.81
2023-04-09T01:13:06.294Z,101296.25
2023-04-09T01:18:41.179Z,101303.38
2023-04-09T01:23:54.940Z,101303.59
2023-04-09T01:29:00.619Z,101286.97
2023-04-09T01:34:02.739Z,101292.72
2023-04-09T01:39:05.207Z,101317.84
2023-04-09T01:44:07.944Z,101300.94
2023-04-09T01:49:10.510Z,101301.00
2023-04-09T01:54:12.107Z,101306.75
2023-04-09T01:59:14.323Z,101308.13
2023-04-09T02:04:44.252Z,101313.22
2023-04-09T02:09:48.654Z,101312.78
2023-04-09T02:14:52.568Z,101317.53
2023-04-09T02:19:54.182Z,101318.38
2023-04-09T02:24:55.886Z,101317.81
2023-04-09T02:29:57.607Z,101319.25
2023-04-09T02:34:59.328Z,101314.06
2023-04-09T02:40:00.997Z,101316.06
2023-04-09T02:45:02.643Z,101318.88
2023-04-09T02:50:07.481Z,101320.06
2023-04-09T02:55:11.327Z,101312.31
2023-04-09T03:00:13.454Z,101329.56
2023-04-09T03:05:15.535Z,101327.50
2023-04-09T03:10:17.206Z,101332.97
2023-04-09T03:15:19.121Z,101330.78
2023-04-09T03:20:20.725Z,101326.25
2023-04-09T03:25:22.468Z,101314.69
2023-04-09T03:30:27.750Z,101318.34
2023-04-09T03:35:31.745Z,101313.16
2023-04-09T03:40:36.511Z,101318.28
2023-04-09T03:45:38.298Z,101320.00
2023-04-09T03:50:54.240Z,101314.63
2023-04-09T03:56:04.981Z,101326.84
2023-04-09T04:01:07.894Z,101315.22
2023-04-09T04:06:14.868Z,101323.78
2023-04-09T04:11:42.674Z,101326.28
2023-04-09T04:16:45.365Z,101319.88
2023-04-09T04:21:52.245Z,101320.47
2023-04-09T04:26:54.659Z,101322.84
2023-04-09T04:31:57.466Z,101321.78
2023-04-09T04:37:02.933Z,101325.81
2023-04-09T04:42:07.487Z,101332.63
2023-04-09T04:47:09.263Z,101337.69
2023-04-09T04:52:11.364Z,101333.38
2023-04-09T04:57:17.515Z,101332.16
2023-04-09T05:02:20.419Z,101336.59
2023-04-09T05:07:42.177Z,101345.78
2023-04-09T05:12:44.373Z,101348.56
2023-04-09T05:17:48.798Z,101341.81
2023-04-09T05:22:52.626Z,101342.28
2023-04-09T05:28:01.967Z,101337.63
2023-04-09T05:33:05.509Z,101343.78
2023-04-09T05:38:08.058Z,101345.53
2023-04-09T05:43:09.951Z,101347.88
2023-04-09T05:48:18.523Z,101352.25
2023-04-09T05:53:21.185Z,101362.56
2023-04-09T05:58:22.926Z,101362.75
2023-04-09T06:03:25.643Z,101365.25
2023-04-09T06:08:28.858Z,101355.53
2023-04-09T06:13:30.597Z,101351.03
2023-04-09T06:18:32.722Z,101345.78
2023-04-09T06:23:36.035Z,101341.16
2023-04-09T06:28:37.988Z,101341.03
2023-04-09T06:33:39.643Z,101343.28
2023-04-09T06:38:41.282Z,101342.84
2023-04-09T06:43:42.911Z,101337.47
2023-04-09T06:48:44.818Z,101343.50
2023-04-09T06:53:48.223Z,101356.50
2023-04-09T06:58:50.169Z,101356.84
2023-04-09T07:03:52.542Z,101365.69
2023-04-09T07:08:54.813Z,101357.44
2023-04-09T07:13:56.961Z,101356.03
2023-04-09T07:18:58.643Z,101360.63
2023-04-09T07:24:00.704Z,101355.69
2023-04-09T07:29:03.766Z,101368.84
2023-04-09T07:34:05.488Z,101365.41
2023-04-09T07:39:07.120Z,101356.34
2023-04-09T07:44:09.431Z,101363.31
2023-04-09T07:49:11.194Z,101355.66
2023-04-09T07:54:12.862Z,101356.91
2023-04-09T07:59:17.423Z,101367.19
2023-04-09T08:04:19.411Z,101361.09
2023-04-09T08:09:21.326Z,101364.31
2023-04-09T08:14:22.929Z,101353.19
2023-04-09T08:19:24.826Z,101351.91
2023-04-09T08:24:27.351Z,101341.53
2023-04-09T08:29:29.336Z,101350.06
2023-04-09T08:34:30.977Z,101361.13
2023-04-09T08:39:33.041Z,101368.34
2023-04-09T08:44:34.826Z,101362.72
2023-04-09T08:49:36.639Z,101381.13
2023-04-09T08:54:38.409Z,101366.81
2023-04-09T08:59:40.062Z,101363.91
2023-04-09T09:04:49.114Z,101358.19
2023-04-09T09:09:52.708Z,101365.16
2023-04-09T09:14:54.413Z,101361.31
2023-04-09T09:19:56.145Z,101357.84
2023-04-09T09:24:57.969Z,101355.19
2023-04-09T09:29:59.659Z,101357.34
2023-04-09T09:35:05.329Z,101354.81
2023-04-09T09:40:07.838Z,101345.47
2023-04-09T09:45:19.573Z,101339.72
2023-04-09T09:50:25.151Z,101338.22
2023-04-09T09:55:27.960Z,101325.34
2023-04-09T10:00:32.620Z,101332.63
2023-04-09T10:05:36.245Z,101331.28
2023-04-09T10:10:39.365Z,101322.47
2023-04-09T10:15:43.217Z,101318.22
2023-04-09T10:20:59.508Z,101321.13
2023-04-09T10:26:01.753Z,101317.00
2023-04-09T10:31:05.356Z,101310.34
2023-04-09T10:36:11.121Z,101304.97
2023-04-09T10:41:31.501Z,101297.78
2023-04-09T10:46:36.895Z,101281.28
2023-04-09T10:51:39.239Z,101285.59
2023-04-09T10:56:40.898Z,101279.59
2023-04-09T11:01:52.665Z,101278.22
2023-04-09T11:06:54.718Z,101280.72
2023-04-09T11:11:57.848Z,101272.41
2023-04-09T11:16:59.540Z,101262.19
2023-04-09T11:22:09.347Z,101275.56
2023-04-09T11:27:14.154Z,101272.53
2023-04-09T11:32:15.829Z,101278.81
2023-04-09T11:37:18.479Z,101282.81
2023-04-09T11:42:21.992Z,101268.59
2023-04-09T11:47:23.711Z,101265.16
2023-04-09T11:52:25.649Z,101269.56
2023-04-09T11:57:43.189Z,101267.13
2023-04-09T12:02:49.327Z,101267.16
2023-04-09T12:07:56.284Z,101256.75
2023-04-09T12:13:03.405Z,101254.44
2023-04-09T12:18:08.569Z,101257.03
2023-04-09T12:23:11.657Z,101270.41
2023-04-09T12:28:18.668Z,101271.97
2023-04-09T12:33:21.371Z,101276.25
2023-04-09T12:38:22.988Z,101265.63
2023-04-09T12:43:24.601Z,101265.91
2023-04-09T12:48:26.793Z,101261.28
2023-04-09T12:53:28.553Z,101258.25
2023-04-09T12:58:31.399Z,101247.22
2023-04-09T13:03:33.300Z,101251.41
2023-04-09T13:08:35.254Z,101239.88
2023-04-09T13:13:36.910Z,101243.56
2023-04-09T13:18:38.509Z,101226.00
2023-04-09T13:23:40.570Z,101235.41
2023-04-09T13:28:43.084Z,101224.66
2023-04-09T13:33:45.964Z,101221.72
2023-04-09T13:38:49.325Z,101215.69
2023-04-09T13:43:51.308Z,101210.72
2023-04-09T13:48:53.363Z,101208.84
2023-04-09T13:53:55.107Z,101206.28
2023-04-09T13:58:56.880Z,101197.31
2023-04-09T14:03:58.630Z,101192.75
2023-04-09T14:09:00.558Z,101194.75
2023-04-09T14:14:02.284Z,101195.56
2023-04-09T14:19:03.868Z,101189.47
2023-04-09T14:24:05.984Z,101187.47
2023-04-09T14:29:07.775Z,101180.31
2023-04-09T14:34:09.367Z,101186.75
2023-04-09T14:39:11.282Z,101178.94
2023-04-09T14:44:12.956Z,101174.19
2023-04-09T14:49:14.626Z,101180.63
2023-04-09T14:54:16.803Z,101177.66
2023-04-09T14:59:18.488Z,101175.22
2023-04-09T15:04:20.150Z,101168.09
2023-04-09T15:09:21.800Z,101171.81
2023-04-09T15:14:24.071Z,101169.97
2023-04-09T15:19:25.912Z,101157.84
2023-04-09T15:24:27.553Z,101158.69
2023-04-09T15:29:29.221Z,101159.56
2023-04-09T15:34:31.054Z,101158.56
2023-04-09T15:39:32.747Z,101158.00
2023-04-09T15:44:34.662Z,101152.44
2023-04-09T15:49:36.928Z,101157.41
2023-04-09T15:54:38.660Z,101155.00
2023-04-09T15:59:40.452Z,101150.16
2023-04-09T16:04:42.236Z,101149.88
2023-04-09T16:09:44.050Z,101157.13
2023-04-09T16:14:45.787Z,101154.72
2023-04-09T16:19:47.458Z,101148.84
2023-04-09T16:24:51.644Z,101148.00
2023-04-09T16:29:53.277Z,101144.72
2023-04-09T16:34:56.093Z,101150.84
2023-04-09T16:39:58.135Z,101155.06
2023-04-09T16:45:00.038Z,101151.38
2023-04-09T16:50:02.925Z,101156.66
2023-04-09T16:55:05.273Z,101152.38
2023-04-09T17:00:07.716Z,101151.94
2023-04-09T17:05:09.889Z,101159.63
2023-04-09T17:10:11.620Z,101160.59
2023-04-09T17:15:13.280Z,101164.88
2023-04-09T17:20:14.946Z,101172.44
2023-04-09T17:25:16.898Z,101170.00
2023-04-09T17:30:19.828Z,101167.13
2023-04-09T17:35:21.456Z,101167.63
2023-04-09T17:40:23.144Z,101175.28
2023-04-09T17:45:24.820Z,101178.94
2023-04-09T17:50:26.410Z,101176.47
2023-04-09T17:55:28.253Z,101178.19
2023-04-09T18:00:29.933Z,101169.56
2023-04-09T18:05:31.746Z,101182.34
2023-04-09T18:10:33.570Z,101181.09
2023-04-09T18:15:35.525Z,101179.38
2023-04-09T18:20:37.192Z,101182.09
2023-04-09T18:25:38.941Z,101182.34
2023-04-09T18:30:41.835Z,101191.31
2023-04-09T18:35:43.493Z,101195.13
2023-04-09T18:40:45.341Z,101201.78
2023-04-09T18:45:47.204Z,101216.34
2023-04-09T18:50:48.934Z,101209.13
2023-04-09T18:55:50.582Z,101217.16
2023-04-09T19:00:52.220Z,101213.34
2023-04-09T19:05:53.847Z,101202.00
2023-04-09T19:10:55.601Z,101211.34
2023-04-09T19:15:57.274Z,101211.03
2023-04-09T19:20:59.033Z,101208.38
2023-04-09T19:26:01.209Z,101208.84
2023-04-09T19:31:05.860Z,101206.16
2023-04-09T19:36:08.196Z,101211.28
2023-04-09T19:41:34.667Z,101213.22
2023-04-09T19:46:36.334Z,101209.63
2023-04-09T19:51:38.024Z,101213.03
2023-04-09T19:56:39.636Z,101209.81
2023-04-09T20:01:41.318Z,101209.22
2023-04-09T20:06:44.257Z,101205.84
2023-04-09T20:11:46.594Z,101212.28
2023-04-09T20:16:48.330Z,101221.78
2023-04-09T20:21:50.016Z,101224.13
2023-04-09T20:26:52.098Z,101221.56
2023-04-09T20:31:56.731Z,101216.59
2023-04-09T20:37:00.682Z,101221.78
2023-04-09T20:42:02.351Z,101223.50
2023-04-09T20:47:04.001Z,101219.22
2023-04-09T20:52:06.990Z,101214.00
2023-04-09T20:57:11.059Z,101221.03
2023-04-09T21:02:14.351Z,101218.78
2023-04-09T21:07:16.223Z,101230.81
2023-04-09T21:12:17.831Z,101226.31
2023-04-09T21:17:19.516Z,101220.59
2023-04-09T21:22:21.209Z,101221.47
2023-04-09T21:27:23.206Z,101226.72
2023-04-09T21:32:25.273Z,101230.28
2023-04-09T21:37:34.955Z,101237.25
2023-04-09T21:42:39.807Z,101240.78
2023-04-09T21:47:41.447Z,101237.25
2023-04-09T21:52:45.098Z,101230.91
2023-04-09T21:57:47.016Z,101226.63
2023-04-09T22:02:53.924Z,101237.91
2023-04-09T22:07:56.075Z,101238.75
2023-04-09T22:12:57.720Z,101229.66
2023-04-09T22:17:59.494Z,101230.09
2023-04-09T22:23:02.709Z,101226.34
2023-04-09T22:28:07.367Z,101224.63
2023-04-09T22:33:10.196Z,101235.53
2023-04-09T22:38:16.230Z,101233.50
2023-04-09T22:43:29.242Z,101231.97
2023-04-09T22:48:38.166Z,101233.44
2023-04-09T22:53:52.729Z,101233.94
2023-04-09T22:58:54.611Z,101233.81
2023-04-09T23:03:56.743Z,101230.22
2023-04-09T23:08:59.871Z,101236.19
2023-04-09T23:14:01.598Z,101231.59
2023-04-09T23:19:03.578Z,101226.59
2023-04-09T23:24:05.432Z,101231.00
2023-04-09T23:29:07.312Z,101221.75
2023-04-09T23:34:08.951Z,101212.78
2023-04-09T23:39:10.992Z,101213.56
2023-04-09T23:44:12.646Z,101228.72
2023-04-09T23:49:16.115Z,101229.22
2023-04-09T23:54:17.741Z,101224.34
2023-04-09T23:59:19.413Z,101236.47
